Sign-in with your pilot id or email, or register

ICAO: LRTM Name / Country: Marosvasarhely / Romania
Latitude: 46.4677 Longitude: 24.4125
Total Arrivals:
Strict Standards: Non-static method AirportData::getarrflights() should not be called statically, assuming $this from incompatible context in /var/www/customers/vh-7192/web/home/phpvms/core/templates/airport_info.tpl on line 18
1
Total Departures:
Strict Standards: Non-static method AirportData::getdeptflights() should not be called statically, assuming $this from incompatible context in /var/www/customers/vh-7192/web/home/phpvms/core/templates/airport_info.tpl on line 21
9
Latest Arrival: MTA424 (LHBP-LRTM) Tibor Berces Latest Departure: MTA11P (LRTM-LHBP) Tibor Berces
Metar: LRTM 151730Z AUTO 19010KT 9999 BKN110/// 23/12 Q1013
More info

Charts for LRTM


NOTAM


Warning: file_get_contents(http://api.vateud.net/notams/LRTM.json): failed to open stream: Redirection limit reached, aborting in /var/www/customers/vh-7192/web/home/phpvms/core/common/NOTAMSData.class.php on line 18

Warning: Invalid argument supplied for foreach() in /var/www/customers/vh-7192/web/home/phpvms/core/common/NOTAMSData.class.php on line 22

Marosvasarhely